createdAt,value
2018-09-28T02:02:28.241Z,16.10
2018-09-28T02:04:57.292Z,16.10
2018-09-28T02:07:26.540Z,16.00
2018-09-28T02:09:55.796Z,15.90
2018-09-28T02:12:24.993Z,15.90
2018-09-28T02:14:54.382Z,15.90
2018-09-28T02:17:23.622Z,15.90
2018-09-28T02:19:52.808Z,15.90
2018-09-28T02:22:21.933Z,15.90
2018-09-28T02:24:51.000Z,15.90
2018-09-28T02:27:20.551Z,15.90
2018-09-28T02:29:49.796Z,15.90
2018-09-28T02:32:18.875Z,15.90
2018-09-28T02:34:48.048Z,15.90
2018-09-28T02:37:17.162Z,15.90
2018-09-28T02:39:46.339Z,15.90
2018-09-28T02:42:15.535Z,15.90
2018-09-28T02:44:44.801Z,15.90
2018-09-28T02:47:13.893Z,15.90
2018-09-28T02:49:42.988Z,15.90
2018-09-28T02:52:12.194Z,15.90
2018-09-28T02:54:41.382Z,15.90
2018-09-28T02:57:10.506Z,15.90
2018-09-28T02:59:39.692Z,16.00
2018-09-28T03:02:08.936Z,16.00
2018-09-28T03:04:38.220Z,15.90
2018-09-28T03:07:07.312Z,16.00
2018-09-28T03:09:36.484Z,15.90
2018-09-28T03:12:05.712Z,16.00
2018-09-28T03:14:35.129Z,15.90
2018-09-28T03:17:05.067Z,15.90
2018-09-28T03:19:34.237Z,16.00
2018-09-28T03:22:03.361Z,16.00
2018-09-28T03:24:32.626Z,15.90
2018-09-28T03:27:01.743Z,16.00
2018-09-28T03:29:30.896Z,16.00
2018-09-28T03:32:00.051Z,16.00
2018-09-28T03:34:29.229Z,16.00
2018-09-28T03:36:58.332Z,16.00
2018-09-28T03:39:27.444Z,16.00
2018-09-28T03:41:56.551Z,16.00
2018-09-28T03:44:25.749Z,16.00
2018-09-28T03:46:54.924Z,15.90
2018-09-28T03:49:24.501Z,15.90
2018-09-28T03:51:53.656Z,15.90
2018-09-28T03:54:22.878Z,15.90
2018-09-28T03:56:52.011Z,15.90
2018-09-28T03:59:21.296Z,15.90
2018-09-28T04:01:50.657Z,15.90
2018-09-28T04:04:19.861Z,15.90
2018-09-28T04:06:49.020Z,15.90
2018-09-28T04:09:18.176Z,15.90
2018-09-28T04:11:47.445Z,15.90
2018-09-28T04:14:16.608Z,15.90
2018-09-28T04:16:45.905Z,15.90
2018-09-28T04:19:15.113Z,15.90
2018-09-28T04:21:51.394Z,15.90
2018-09-28T04:24:20.559Z,15.90
2018-09-28T04:26:49.642Z,15.90
2018-09-28T04:29:18.700Z,15.90
2018-09-28T04:31:47.749Z,15.90
2018-09-28T04:34:16.972Z,15.90
2018-09-28T04:36:46.063Z,15.90
2018-09-28T04:39:15.142Z,15.90
2018-09-28T04:41:44.339Z,15.90
2018-09-28T04:44:13.431Z,15.80
2018-09-28T04:46:42.569Z,15.80
2018-09-28T04:49:13.831Z,15.80
2018-09-28T04:51:43.493Z,15.80
2018-09-28T04:54:12.587Z,15.80
2018-09-28T04:56:41.707Z,15.80
2018-09-28T04:59:10.807Z,15.80
2018-09-28T05:01:39.928Z,15.80
2018-09-28T05:04:09.216Z,15.80
2018-09-28T05:06:38.349Z,15.80
2018-09-28T05:09:11.699Z,15.80
2018-09-28T05:11:40.750Z,15.80
2018-09-28T05:14:10.306Z,15.80
2018-09-28T05:16:40.402Z,15.80
2018-09-28T05:19:10.054Z,15.70
2018-09-28T05:21:39.265Z,15.70
2018-09-28T05:24:08.411Z,15.70
2018-09-28T05:26:37.678Z,15.70
2018-09-28T05:29:07.577Z,15.70
2018-09-28T05:31:37.624Z,15.70
2018-09-28T05:34:07.249Z,15.70
2018-09-28T05:36:36.923Z,15.70
2018-09-28T05:39:08.188Z,15.70
2018-09-28T05:41:37.368Z,15.70
2018-09-28T05:44:06.490Z,15.70
2018-09-28T05:46:35.631Z,15.70
2018-09-28T05:49:05.005Z,15.70
2018-09-28T05:51:34.228Z,15.60
2018-09-28T05:54:03.206Z,15.60
2018-09-28T05:56:33.004Z,15.60
2018-09-28T05:59:07.670Z,15.60
2018-09-28T06:01:42.871Z,15.60
2018-09-28T06:04:18.089Z,15.60
2018-09-28T06:06:47.264Z,15.60
2018-09-28T06:09:16.842Z,15.50
2018-09-28T06:11:46.319Z,15.50
2018-09-28T06:14:15.640Z,15.50
2018-09-28T06:16:44.835Z,15.50
2018-09-28T06:19:14.014Z,15.50
2018-09-28T06:21:43.106Z,15.50
2018-09-28T06:24:12.377Z,15.50
2018-09-28T06:26:41.682Z,15.50
2018-09-28T06:29:10.761Z,15.50
2018-09-28T06:31:39.936Z,15.50
2018-09-28T06:34:09.077Z,15.50
2018-09-28T06:36:38.297Z,15.50
2018-09-28T06:39:07.698Z,15.50
2018-09-28T06:41:36.854Z,15.50
2018-09-28T06:44:05.909Z,15.50
2018-09-28T06:46:35.104Z,15.50
2018-09-28T06:49:04.798Z,15.50
2018-09-28T06:51:34.032Z,15.50
2018-09-28T06:54:03.177Z,15.50
2018-09-28T06:56:32.361Z,15.50
2018-09-28T06:59:01.627Z,15.50
2018-09-28T07:01:30.782Z,15.60
2018-09-28T07:04:00.011Z,15.50
2018-09-28T07:06:29.090Z,15.60
2018-09-28T07:08:58.168Z,15.60
2018-09-28T07:11:27.260Z,15.60
2018-09-28T07:13:56.348Z,15.60
2018-09-28T07:16:25.723Z,15.60
2018-09-28T07:18:54.824Z,15.60
2018-09-28T07:21:23.947Z,15.70
2018-09-28T07:23:53.273Z,15.70
2018-09-28T07:26:22.416Z,15.70
2018-09-28T07:28:51.678Z,15.70
2018-09-28T07:31:21.881Z,15.80
2018-09-28T07:33:50.999Z,15.80
2018-09-28T07:36:20.599Z,15.80
2018-09-28T07:38:49.676Z,15.80
2018-09-28T07:41:18.821Z,15.90
2018-09-28T07:43:47.977Z,15.80
2018-09-28T07:46:17.891Z,15.90
2018-09-28T07:48:47.103Z,15.90
2018-09-28T07:51:16.379Z,16.00
2018-09-28T07:53:45.674Z,16.00
2018-09-28T07:56:14.948Z,16.00
2018-09-28T07:58:44.780Z,16.10
2018-09-28T08:01:14.101Z,16.20
2018-09-28T08:03:43.454Z,16.20
2018-09-28T08:08:43.327Z,16.40
2018-09-28T08:11:13.567Z,16.40
2018-09-28T08:13:42.944Z,16.50
2018-09-28T08:16:12.110Z,16.50
2018-09-28T08:18:41.271Z,16.60
2018-09-28T08:21:10.549Z,16.60
2018-09-28T08:23:39.625Z,16.70
2018-09-28T08:26:08.827Z,16.70
2018-09-28T08:28:38.076Z,16.80
2018-09-28T08:31:07.302Z,16.90
2018-09-28T08:41:02.814Z,16.90
2018-09-28T08:43:31.926Z,17.00
2018-09-28T08:46:00.950Z,17.10
2018-09-28T08:48:30.146Z,17.10
2018-09-28T08:50:59.452Z,17.10
2018-09-28T08:53:29.446Z,17.20
2018-09-28T08:55:58.605Z,17.30
2018-09-28T08:58:27.856Z,17.40
2018-09-28T09:00:57.097Z,17.50
2018-09-28T09:03:26.168Z,17.60
2018-09-28T09:05:55.304Z,17.70
2018-09-28T09:08:24.389Z,17.90
2018-09-28T09:10:53.635Z,18.00
2018-09-28T09:13:23.157Z,18.10
2018-09-28T09:15:52.363Z,18.20
2018-09-28T09:18:21.759Z,18.40
2018-09-28T09:20:50.935Z,18.50
2018-09-28T09:23:20.190Z,18.60
2018-09-28T09:25:49.430Z,18.70
2018-09-28T09:28:18.814Z,18.80
2018-09-28T09:30:48.096Z,18.90
2018-09-28T09:33:17.205Z,19.00
2018-09-28T09:35:46.492Z,19.00
2018-09-28T09:38:15.757Z,19.10
2018-09-28T09:40:44.982Z,19.10
2018-09-28T09:43:14.090Z,19.10
2018-09-28T09:45:43.535Z,19.10
2018-09-28T09:48:12.705Z,19.20
2018-09-28T09:50:41.957Z,19.20
2018-09-28T09:53:11.170Z,19.30
2018-09-28T09:55:40.915Z,19.30
2018-09-28T09:58:10.018Z,19.40
2018-09-28T10:00:44.485Z,19.40
2018-09-28T10:03:18.946Z,19.50
2018-09-28T10:05:47.995Z,19.50
2018-09-28T10:08:17.144Z,19.60
2018-09-28T10:10:46.353Z,19.60
2018-09-28T10:13:15.429Z,19.70
2018-09-28T10:15:44.645Z,19.70
2018-09-28T10:18:15.029Z,19.70
2018-09-28T10:20:44.351Z,19.80
2018-09-28T10:23:13.512Z,19.90
2018-09-28T10:25:48.248Z,19.90
2018-09-28T10:28:17.492Z,20.00
2018-09-28T10:30:46.595Z,20.00
2018-09-28T10:33:16.322Z,20.10
2018-09-28T10:35:45.943Z,20.10
2018-09-28T10:38:15.511Z,20.20
2018-09-28T10:40:45.216Z,20.10
2018-09-28T10:43:14.499Z,20.20
2018-09-28T10:45:44.054Z,20.20
2018-09-28T10:48:13.306Z,20.20
2018-09-28T10:50:42.475Z,20.20
2018-09-28T10:53:11.918Z,20.20
2018-09-28T10:55:41.016Z,20.20
2018-09-28T10:58:10.753Z,20.20
2018-09-28T11:00:40.786Z,20.20
2018-09-28T11:03:09.909Z,20.20
2018-09-28T11:05:39.445Z,20.20
2018-09-28T11:08:08.540Z,20.20
2018-09-28T11:10:37.746Z,20.10
2018-09-28T11:13:06.992Z,20.20
2018-09-28T11:15:36.429Z,20.20
2018-09-28T11:18:05.481Z,20.20
2018-09-28T11:20:34.536Z,20.20
2018-09-28T11:23:04.621Z,20.20
2018-09-28T11:25:33.768Z,20.20
2018-09-28T11:28:02.858Z,20.30
2018-09-28T11:30:31.958Z,20.30
2018-09-28T11:33:01.131Z,20.30
2018-09-28T11:35:30.280Z,20.30
2018-09-28T11:40:28.329Z,20.20
2018-09-28T11:42:57.526Z,20.40
2018-09-28T11:45:26.879Z,20.40
